sensor_id;sensor_type;location;lat;lon;timestamp;P1;durP1;ratioP1;P2;durP2;ratioP2
71629;SDS011;59479;51.902;8.212;2024-03-06T00:01:31;26.70;;;12.57;;
71629;SDS011;59479;51.902;8.212;2024-03-06T00:03:56;24.17;;;9.63;;
71629;SDS011;59479;51.902;8.212;2024-03-06T00:06:22;20.48;;;9.23;;
71629;SDS011;59479;51.902;8.212;2024-03-06T00:08:49;21.97;;;9.33;;
71629;SDS011;59479;51.902;8.212;2024-03-06T00:11:14;21.27;;;9.20;;
71629;SDS011;59479;51.902;8.212;2024-03-06T00:13:40;20.63;;;10.10;;
71629;SDS011;59479;51.902;8.212;2024-03-06T00:16:05;20.93;;;9.37;;
71629;SDS011;59479;51.902;8.212;2024-03-06T00:18:31;23.73;;;9.50;;
71629;SDS011;59479;51.902;8.212;2024-03-06T00:20:56;21.60;;;10.90;;
71629;SDS011;59479;51.902;8.212;2024-03-06T00:23:21;20.35;;;9.27;;
71629;SDS011;59479;51.902;8.212;2024-03-06T00:25:47;23.83;;;10.13;;
71629;SDS011;59479;51.902;8.212;2024-03-06T00:28:12;20.70;;;10.07;;
71629;SDS011;59479;51.902;8.212;2024-03-06T00:30:37;25.07;;;10.47;;
71629;SDS011;59479;51.902;8.212;2024-03-06T00:33:03;22.23;;;9.07;;
71629;SDS011;59479;51.902;8.212;2024-03-06T00:35:28;22.50;;;9.30;;
71629;SDS011;59479;51.902;8.212;2024-03-06T00:37:54;23.17;;;9.60;;
71629;SDS011;59479;51.902;8.212;2024-03-06T00:40:19;24.33;;;9.60;;
71629;SDS011;59479;51.902;8.212;2024-03-06T00:42:45;19.60;;;9.13;;
71629;SDS011;59479;51.902;8.212;2024-03-06T00:45:10;19.83;;;9.33;;
71629;SDS011;59479;51.902;8.212;2024-03-06T00:47:36;21.10;;;10.10;;
71629;SDS011;59479;51.902;8.212;2024-03-06T00:50:02;31.80;;;10.00;;
71629;SDS011;59479;51.902;8.212;2024-03-06T00:52:28;26.90;;;10.93;;
71629;SDS011;59479;51.902;8.212;2024-03-06T00:54:53;20.47;;;9.90;;
71629;SDS011;59479;51.902;8.212;2024-03-06T00:57:19;25.63;;;10.57;;
71629;SDS011;59479;51.902;8.212;2024-03-06T00:59:44;25.53;;;11.10;;
71629;SDS011;59479;51.902;8.212;2024-03-06T01:02:09;20.23;;;10.53;;
71629;SDS011;59479;51.902;8.212;2024-03-06T01:04:35;24.33;;;11.48;;
71629;SDS011;59479;51.902;8.212;2024-03-06T01:07:00;25.83;;;11.73;;
71629;SDS011;59479;51.902;8.212;2024-03-06T01:09:25;22.77;;;10.47;;
71629;SDS011;59479;51.902;8.212;2024-03-06T01:11:52;21.05;;;10.60;;
71629;SDS011;59479;51.902;8.212;2024-03-06T01:14:17;28.60;;;11.30;;
71629;SDS011;59479;51.902;8.212;2024-03-06T01:16:43;25.33;;;9.50;;
71629;SDS011;59479;51.902;8.212;2024-03-06T01:19:08;25.77;;;10.97;;
71629;SDS011;59479;51.902;8.212;2024-03-06T01:21:34;22.60;;;9.73;;
71629;SDS011;59479;51.902;8.212;2024-03-06T01:24:00;26.10;;;11.10;;
71629;SDS011;59479;51.902;8.212;2024-03-06T01:26:26;25.45;;;11.50;;
71629;SDS011;59479;51.902;8.212;2024-03-06T01:28:51;23.87;;;11.40;;
71629;SDS011;59479;51.902;8.212;2024-03-06T01:31:16;22.38;;;11.23;;
71629;SDS011;59479;51.902;8.212;2024-03-06T01:33:42;27.20;;;11.23;;
71629;SDS011;59479;51.902;8.212;2024-03-06T01:36:07;22.80;;;9.70;;
71629;SDS011;59479;51.902;8.212;2024-03-06T01:38:33;29.53;;;11.23;;
71629;SDS011;59479;51.902;8.212;2024-03-06T01:40:58;24.23;;;11.53;;
71629;SDS011;59479;51.902;8.212;2024-03-06T01:43:24;27.20;;;12.33;;
71629;SDS011;59479;51.902;8.212;2024-03-06T01:45:50;26.33;;;10.60;;
71629;SDS011;59479;51.902;8.212;2024-03-06T01:48:18;24.70;;;10.52;;
71629;SDS011;59479;51.902;8.212;2024-03-06T01:50:46;33.95;;;10.88;;
71629;SDS011;59479;51.902;8.212;2024-03-06T01:53:12;22.17;;;10.97;;
71629;SDS011;59479;51.902;8.212;2024-03-06T01:55:39;22.30;;;9.73;;
71629;SDS011;59479;51.902;8.212;2024-03-06T01:58:04;25.93;;;11.50;;
71629;SDS011;59479;51.902;8.212;2024-03-06T02:00:31;23.08;;;10.25;;
71629;SDS011;59479;51.902;8.212;2024-03-06T02:02:57;23.33;;;10.13;;
71629;SDS011;59479;51.902;8.212;2024-03-06T02:05:22;24.17;;;11.13;;
71629;SDS011;59479;51.902;8.212;2024-03-06T02:07:48;23.93;;;11.20;;
71629;SDS011;59479;51.902;8.212;2024-03-06T02:10:14;25.23;;;10.52;;
71629;SDS011;59479;51.902;8.212;2024-03-06T02:12:39;27.23;;;10.93;;
71629;SDS011;59479;51.902;8.212;2024-03-06T02:15:06;24.70;;;10.07;;
71629;SDS011;59479;51.902;8.212;2024-03-06T02:17:32;29.38;;;11.20;;
71629;SDS011;59479;51.902;8.212;2024-03-06T02:19:57;25.23;;;11.07;;
71629;SDS011;59479;51.902;8.212;2024-03-06T02:22:25;42.83;;;12.35;;
71629;SDS011;59479;51.902;8.212;2024-03-06T02:24:51;64.90;;;14.17;;
71629;SDS011;59479;51.902;8.212;2024-03-06T02:27:16;44.97;;;13.57;;
71629;SDS011;59479;51.902;8.212;2024-03-06T02:29:42;55.73;;;14.43;;
71629;SDS011;59479;51.902;8.212;2024-03-06T02:32:07;47.78;;;13.15;;
71629;SDS011;59479;51.902;8.212;2024-03-06T02:34:33;44.60;;;13.40;;
71629;SDS011;59479;51.902;8.212;2024-03-06T02:36:59;50.88;;;13.38;;
71629;SDS011;59479;51.902;8.212;2024-03-06T02:39:24;42.33;;;13.07;;
71629;SDS011;59479;51.902;8.212;2024-03-06T02:41:49;45.43;;;15.50;;
71629;SDS011;59479;51.902;8.212;2024-03-06T02:44:15;41.40;;;14.23;;
71629;SDS011;59479;51.902;8.212;2024-03-06T02:46:45;42.47;;;12.43;;
71629;SDS011;59479;51.902;8.212;2024-03-06T02:49:12;41.05;;;13.30;;
71629;SDS011;59479;51.902;8.212;2024-03-06T02:51:37;40.73;;;13.87;;
71629;SDS011;59479;51.902;8.212;2024-03-06T02:54:02;43.30;;;13.17;;
71629;SDS011;59479;51.902;8.212;2024-03-06T02:56:28;47.10;;;12.40;;
71629;SDS011;59479;51.902;8.212;2024-03-06T02:58:53;33.10;;;12.60;;
71629;SDS011;59479;51.902;8.212;2024-03-06T03:01:19;28.98;;;11.73;;
71629;SDS011;59479;51.902;8.212;2024-03-06T03:03:45;28.83;;;11.47;;
71629;SDS011;59479;51.902;8.212;2024-03-06T03:06:12;30.95;;;11.95;;
71629;SDS011;59479;51.902;8.212;2024-03-06T03:08:38;33.13;;;11.73;;
71629;SDS011;59479;51.902;8.212;2024-03-06T03:11:04;34.47;;;10.68;;
71629;SDS011;59479;51.902;8.212;2024-03-06T03:13:29;37.27;;;12.37;;
71629;SDS011;59479;51.902;8.212;2024-03-06T03:15:56;31.40;;;12.57;;
71629;SDS011;59479;51.902;8.212;2024-03-06T03:18:21;30.80;;;11.65;;
71629;SDS011;59479;51.902;8.212;2024-03-06T03:20:47;35.43;;;12.83;;
71629;SDS011;59479;51.902;8.212;2024-03-06T03:23:12;29.73;;;11.47;;
71629;SDS011;59479;51.902;8.212;2024-03-06T03:25:40;25.92;;;11.23;;
71629;SDS011;59479;51.902;8.212;2024-03-06T03:28:06;36.80;;;13.05;;
71629;SDS011;59479;51.902;8.212;2024-03-06T03:30:31;32.93;;;12.67;;
71629;SDS011;59479;51.902;8.212;2024-03-06T03:32:57;32.00;;;12.23;;
71629;SDS011;59479;51.902;8.212;2024-03-06T03:35:22;27.80;;;12.00;;
71629;SDS011;59479;51.902;8.212;2024-03-06T03:37:53;35.13;;;12.90;;
71629;SDS011;59479;51.902;8.212;2024-03-06T03:40:18;30.55;;;12.82;;
71629;SDS011;59479;51.902;8.212;2024-03-06T03:42:44;33.65;;;13.68;;
71629;SDS011;59479;51.902;8.212;2024-03-06T03:45:09;31.30;;;11.82;;
71629;SDS011;59479;51.902;8.212;2024-03-06T03:47:35;35.33;;;13.23;;
71629;SDS011;59479;51.902;8.212;2024-03-06T03:50:00;31.33;;;12.90;;
71629;SDS011;59479;51.902;8.212;2024-03-06T03:52:26;33.57;;;12.63;;
71629;SDS011;59479;51.902;8.212;2024-03-06T03:54:51;30.23;;;11.77;;
71629;SDS011;59479;51.902;8.212;2024-03-06T03:57:16;33.92;;;12.77;;
71629;SDS011;59479;51.902;8.212;2024-03-06T03:59:42;34.33;;;12.20;;
71629;SDS011;59479;51.902;8.212;2024-03-06T04:02:08;34.73;;;11.63;;
71629;SDS011;59479;51.902;8.212;2024-03-06T04:04:33;32.22;;;13.20;;
71629;SDS011;59479;51.902;8.212;2024-03-06T04:06:59;39.13;;;14.67;;
71629;SDS011;59479;51.902;8.212;2024-03-06T04:09:26;33.13;;;12.48;;
71629;SDS011;59479;51.902;8.212;2024-03-06T04:11:52;36.85;;;13.55;;
71629;SDS011;59479;51.902;8.212;2024-03-06T04:14:17;32.20;;;11.37;;
71629;SDS011;59479;51.902;8.212;2024-03-06T04:16:45;43.83;;;12.27;;
71629;SDS011;59479;51.902;8.212;2024-03-06T04:19:11;29.52;;;11.48;;
71629;SDS011;59479;51.902;8.212;2024-03-06T04:21:40;32.50;;;12.73;;
71629;SDS011;59479;51.902;8.212;2024-03-06T04:24:07;28.65;;;11.50;;
71629;SDS011;59479;51.902;8.212;2024-03-06T04:26:32;35.40;;;12.57;;
71629;SDS011;59479;51.902;8.212;2024-03-06T04:28:57;28.03;;;11.10;;
71629;SDS011;59479;51.902;8.212;2024-03-06T04:31:23;35.03;;;12.33;;
71629;SDS011;59479;51.902;8.212;2024-03-06T04:33:48;31.90;;;12.63;;
71629;SDS011;59479;51.902;8.212;2024-03-06T04:36:13;32.10;;;11.83;;
71629;SDS011;59479;51.902;8.212;2024-03-06T04:38:39;34.57;;;12.17;;
71629;SDS011;59479;51.902;8.212;2024-03-06T04:41:05;33.13;;;11.87;;
71629;SDS011;59479;51.902;8.212;2024-03-06T04:43:31;36.50;;;13.32;;
71629;SDS011;59479;51.902;8.212;2024-03-06T04:45:56;36.40;;;13.37;;
71629;SDS011;59479;51.902;8.212;2024-03-06T04:48:22;32.13;;;12.73;;
71629;SDS011;59479;51.902;8.212;2024-03-06T04:50:47;33.17;;;11.33;;
71629;SDS011;59479;51.902;8.212;2024-03-06T04:53:12;24.95;;;10.50;;
71629;SDS011;59479;51.902;8.212;2024-03-06T04:55:38;38.93;;;12.07;;
71629;SDS011;59479;51.902;8.212;2024-03-06T04:58:03;32.67;;;12.50;;
71629;SDS011;59479;51.902;8.212;2024-03-06T05:00:29;32.73;;;12.37;;
71629;SDS011;59479;51.902;8.212;2024-03-06T05:02:55;30.80;;;11.00;;
71629;SDS011;59479;51.902;8.212;2024-03-06T05:05:21;31.20;;;12.13;;
71629;SDS011;59479;51.902;8.212;2024-03-06T05:07:47;33.63;;;12.30;;
71629;SDS011;59479;51.902;8.212;2024-03-06T05:10:13;25.88;;;11.05;;
71629;SDS011;59479;51.902;8.212;2024-03-06T05:12:38;31.97;;;11.70;;
71629;SDS011;59479;51.902;8.212;2024-03-06T05:15:04;29.30;;;10.90;;
71629;SDS011;59479;51.902;8.212;2024-03-06T05:17:30;31.00;;;12.23;;
71629;SDS011;59479;51.902;8.212;2024-03-06T05:19:55;26.63;;;10.53;;
71629;SDS011;59479;51.902;8.212;2024-03-06T05:22:20;29.47;;;11.87;;
71629;SDS011;59479;51.902;8.212;2024-03-06T05:24:46;25.27;;;10.03;;
71629;SDS011;59479;51.902;8.212;2024-03-06T05:27:11;32.03;;;11.38;;
71629;SDS011;59479;51.902;8.212;2024-03-06T05:29:41;30.20;;;10.87;;
71629;SDS011;59479;51.902;8.212;2024-03-06T05:32:07;32.33;;;12.05;;
71629;SDS011;59479;51.902;8.212;2024-03-06T05:34:32;29.67;;;11.60;;
71629;SDS011;59479;51.902;8.212;2024-03-06T05:36:58;25.60;;;10.38;;
71629;SDS011;59479;51.902;8.212;2024-03-06T05:39:24;25.77;;;11.23;;
71629;SDS011;59479;51.902;8.212;2024-03-06T05:41:49;24.47;;;10.43;;
71629;SDS011;59479;51.902;8.212;2024-03-06T05:44:15;31.53;;;12.83;;
71629;SDS011;59479;51.902;8.212;2024-03-06T05:46:40;31.87;;;12.47;;
71629;SDS011;59479;51.902;8.212;2024-03-06T05:49:05;36.00;;;11.57;;
71629;SDS011;59479;51.902;8.212;2024-03-06T05:51:31;30.30;;;11.53;;
71629;SDS011;59479;51.902;8.212;2024-03-06T05:53:56;25.93;;;10.63;;
71629;SDS011;59479;51.902;8.212;2024-03-06T05:56:21;31.30;;;11.40;;
71629;SDS011;59479;51.902;8.212;2024-03-06T05:58:47;27.23;;;11.57;;
71629;SDS011;59479;51.902;8.212;2024-03-06T06:01:17;30.35;;;12.10;;
71629;SDS011;59479;51.902;8.212;2024-03-06T06:03:48;29.25;;;11.15;;
71629;SDS011;59479;51.902;8.212;2024-03-06T06:06:17;35.17;;;13.57;;
71629;SDS011;59479;51.902;8.212;2024-03-06T06:08:44;34.10;;;13.53;;
71629;SDS011;59479;51.902;8.212;2024-03-06T06:11:10;33.03;;;11.45;;
71629;SDS011;59479;51.902;8.212;2024-03-06T06:13:36;35.75;;;12.93;;
71629;SDS011;59479;51.902;8.212;2024-03-06T06:16:01;28.77;;;12.77;;
71629;SDS011;59479;51.902;8.212;2024-03-06T06:18:29;29.08;;;11.88;;
71629;SDS011;59479;51.902;8.212;2024-03-06T06:20:56;35.25;;;11.93;;
71629;SDS011;59479;51.902;8.212;2024-03-06T06:23:22;30.53;;;12.37;;
71629;SDS011;59479;51.902;8.212;2024-03-06T06:25:48;37.55;;;12.73;;
71629;SDS011;59479;51.902;8.212;2024-03-06T06:28:13;31.30;;;12.70;;
71629;SDS011;59479;51.902;8.212;2024-03-06T06:30:38;25.33;;;10.63;;
71629;SDS011;59479;51.902;8.212;2024-03-06T06:33:04;28.93;;;11.80;;
71629;SDS011;59479;51.902;8.212;2024-03-06T06:35:30;30.45;;;12.40;;
71629;SDS011;59479;51.902;8.212;2024-03-06T06:37:55;35.63;;;11.73;;
71629;SDS011;59479;51.902;8.212;2024-03-06T06:40:21;31.20;;;10.77;;
71629;SDS011;59479;51.902;8.212;2024-03-06T06:42:47;30.65;;;11.68;;
71629;SDS011;59479;51.902;8.212;2024-03-06T06:45:17;38.17;;;13.20;;
71629;SDS011;59479;51.902;8.212;2024-03-06T06:47:43;31.48;;;12.07;;
71629;SDS011;59479;51.902;8.212;2024-03-06T06:50:09;30.45;;;12.10;;
71629;SDS011;59479;51.902;8.212;2024-03-06T06:52:36;32.58;;;12.18;;
71629;SDS011;59479;51.902;8.212;2024-03-06T06:55:06;26.75;;;11.73;;
71629;SDS011;59479;51.902;8.212;2024-03-06T06:57:32;24.07;;;11.63;;
71629;SDS011;59479;51.902;8.212;2024-03-06T06:59:58;26.15;;;11.57;;
71629;SDS011;59479;51.902;8.212;2024-03-06T07:02:24;26.90;;;12.07;;
71629;SDS011;59479;51.902;8.212;2024-03-06T07:04:50;35.43;;;12.47;;
71629;SDS011;59479;51.902;8.212;2024-03-06T07:07:15;29.73;;;11.93;;
71629;SDS011;59479;51.902;8.212;2024-03-06T07:09:42;25.95;;;11.35;;
71629;SDS011;59479;51.902;8.212;2024-03-06T07:12:08;31.50;;;12.13;;
71629;SDS011;59479;51.902;8.212;2024-03-06T07:14:34;30.48;;;10.10;;
71629;SDS011;59479;51.902;8.212;2024-03-06T07:17:00;34.43;;;11.47;;
71629;SDS011;59479;51.902;8.212;2024-03-06T07:19:25;28.92;;;11.70;;
71629;SDS011;59479;51.902;8.212;2024-03-06T07:21:50;31.17;;;11.90;;
71629;SDS011;59479;51.902;8.212;2024-03-06T07:24:17;23.70;;;11.75;;
71629;SDS011;59479;51.902;8.212;2024-03-06T07:26:43;33.70;;;13.33;;
71629;SDS011;59479;51.902;8.212;2024-03-06T07:29:08;26.63;;;10.50;;
71629;SDS011;59479;51.902;8.212;2024-03-06T07:31:40;35.08;;;13.45;;
71629;SDS011;59479;51.902;8.212;2024-03-06T07:34:06;25.67;;;11.33;;
71629;SDS011;59479;51.902;8.212;2024-03-06T07:36:33;35.30;;;11.65;;
71629;SDS011;59479;51.902;8.212;2024-03-06T07:39:00;31.77;;;12.60;;
71629;SDS011;59479;51.902;8.212;2024-03-06T07:41:26;29.38;;;11.63;;
71629;SDS011;59479;51.902;8.212;2024-03-06T07:43:51;34.90;;;12.30;;
71629;SDS011;59479;51.902;8.212;2024-03-06T07:46:16;31.07;;;10.43;;
71629;SDS011;59479;51.902;8.212;2024-03-06T07:48:42;29.23;;;10.70;;
71629;SDS011;59479;51.902;8.212;2024-03-06T07:51:08;21.70;;;10.43;;
71629;SDS011;59479;51.902;8.212;2024-03-06T07:53:34;29.27;;;13.23;;
71629;SDS011;59479;51.902;8.212;2024-03-06T07:55:59;27.47;;;11.50;;
71629;SDS011;59479;51.902;8.212;2024-03-06T07:58:25;26.33;;;11.97;;
71629;SDS011;59479;51.902;8.212;2024-03-06T08:00:50;24.23;;;11.30;;
71629;SDS011;59479;51.902;8.212;2024-03-06T08:03:18;24.45;;;10.75;;
71629;SDS011;59479;51.902;8.212;2024-03-06T08:05:43;26.97;;;12.60;;
71629;SDS011;59479;51.902;8.212;2024-03-06T08:08:09;28.87;;;10.77;;
71629;SDS011;59479;51.902;8.212;2024-03-06T08:10:34;32.63;;;11.27;;
71629;SDS011;59479;51.902;8.212;2024-03-06T08:13:00;29.13;;;11.05;;
71629;SDS011;59479;51.902;8.212;2024-03-06T08:15:25;32.27;;;11.83;;
71629;SDS011;59479;51.902;8.212;2024-03-06T08:17:50;27.30;;;10.80;;
71629;SDS011;59479;51.902;8.212;2024-03-06T08:20:17;26.60;;;11.65;;
71629;SDS011;59479;51.902;8.212;2024-03-06T08:22:43;31.10;;;12.17;;
71629;SDS011;59479;51.902;8.212;2024-03-06T08:25:09;29.08;;;10.35;;
71629;SDS011;59479;51.902;8.212;2024-03-06T08:27:36;26.05;;;11.20;;
71629;SDS011;59479;51.902;8.212;2024-03-06T08:30:05;26.63;;;11.32;;
71629;SDS011;59479;51.902;8.212;2024-03-06T08:32:33;24.70;;;11.02;;
71629;SDS011;59479;51.902;8.212;2024-03-06T08:35:10;25.65;;;11.02;;
71629;SDS011;59479;51.902;8.212;2024-03-06T08:37:36;24.17;;;10.20;;
71629;SDS011;59479;51.902;8.212;2024-03-06T08:40:03;25.02;;;10.32;;
71629;SDS011;59479;51.902;8.212;2024-03-06T08:42:28;21.05;;;10.32;;
71629;SDS011;59479;51.902;8.212;2024-03-06T08:44:54;28.50;;;11.33;;
71629;SDS011;59479;51.902;8.212;2024-03-06T08:47:19;28.57;;;10.27;;
71629;SDS011;59479;51.902;8.212;2024-03-06T08:49:45;26.88;;;10.98;;
71629;SDS011;59479;51.902;8.212;2024-03-06T08:52:10;22.37;;;10.07;;
71629;SDS011;59479;51.902;8.212;2024-03-06T08:54:36;29.03;;;10.93;;
71629;SDS011;59479;51.902;8.212;2024-03-06T08:57:02;26.08;;;10.20;;
71629;SDS011;59479;51.902;8.212;2024-03-06T08:59:29;25.95;;;10.73;;
71629;SDS011;59479;51.902;8.212;2024-03-06T09:01:54;27.50;;;11.00;;
71629;SDS011;59479;51.902;8.212;2024-03-06T09:04:25;24.17;;;10.30;;
71629;SDS011;59479;51.902;8.212;2024-03-06T09:06:50;21.13;;;9.30;;
71629;SDS011;59479;51.902;8.212;2024-03-06T09:09:16;24.50;;;10.40;;
71629;SDS011;59479;51.902;8.212;2024-03-06T09:11:41;27.30;;;11.63;;
71629;SDS011;59479;51.902;8.212;2024-03-06T09:14:07;22.40;;;10.77;;
71629;SDS011;59479;51.902;8.212;2024-03-06T09:16:34;25.45;;;11.07;;
71629;SDS011;59479;51.902;8.212;2024-03-06T09:18:59;25.33;;;10.63;;
71629;SDS011;59479;51.902;8.212;2024-03-06T09:21:25;24.43;;;10.20;;
71629;SDS011;59479;51.902;8.212;2024-03-06T09:23:50;30.08;;;10.95;;
71629;SDS011;59479;51.902;8.212;2024-03-06T09:26:16;23.50;;;9.20;;
71629;SDS011;59479;51.902;8.212;2024-03-06T09:28:42;22.58;;;10.02;;
71629;SDS011;59479;51.902;8.212;2024-03-06T09:31:08;24.67;;;11.00;;
71629;SDS011;59479;51.902;8.212;2024-03-06T09:33:33;27.83;;;10.23;;
71629;SDS011;59479;51.902;8.212;2024-03-06T09:35:58;27.10;;;11.55;;
71629;SDS011;59479;51.902;8.212;2024-03-06T09:38:24;20.52;;;8.80;;
71629;SDS011;59479;51.902;8.212;2024-03-06T09:40:49;24.03;;;10.33;;
71629;SDS011;59479;51.902;8.212;2024-03-06T09:43:16;25.58;;;10.15;;
71629;SDS011;59479;51.902;8.212;2024-03-06T09:45:42;24.63;;;10.13;;
71629;SDS011;59479;51.902;8.212;2024-03-06T09:48:11;28.30;;;10.32;;
71629;SDS011;59479;51.902;8.212;2024-03-06T09:50:37;27.50;;;11.03;;
71629;SDS011;59479;51.902;8.212;2024-03-06T09:53:10;25.40;;;9.98;;
71629;SDS011;59479;51.902;8.212;2024-03-06T09:55:40;27.05;;;10.05;;
71629;SDS011;59479;51.902;8.212;2024-03-06T09:58:06;21.52;;;9.73;;
71629;SDS011;59479;51.902;8.212;2024-03-06T10:00:33;22.73;;;9.63;;
71629;SDS011;59479;51.902;8.212;2024-03-06T10:03:02;26.83;;;10.80;;
71629;SDS011;59479;51.902;8.212;2024-03-06T10:05:30;23.23;;;9.52;;
71629;SDS011;59479;51.902;8.212;2024-03-06T10:07:58;20.15;;;9.30;;
71629;SDS011;59479;51.902;8.212;2024-03-06T10:10:25;22.73;;;9.90;;
71629;SDS011;59479;51.902;8.212;2024-03-06T10:12:51;23.27;;;9.40;;
71629;SDS011;59479;51.902;8.212;2024-03-06T10:15:17;19.58;;;9.27;;
71629;SDS011;59479;51.902;8.212;2024-03-06T10:17:43;20.60;;;9.63;;
71629;SDS011;59479;51.902;8.212;2024-03-06T10:22:52;20.10;;;9.32;;
71629;SDS011;59479;51.902;8.212;2024-03-06T10:25:21;20.00;;;8.45;;
71629;SDS011;59479;51.902;8.212;2024-03-06T10:28:03;18.17;;;8.80;;
71629;SDS011;59479;51.902;8.212;2024-03-06T10:30:30;17.23;;;8.33;;
71629;SDS011;59479;51.902;8.212;2024-03-06T10:32:56;21.23;;;9.10;;
71629;SDS011;59479;51.902;8.212;2024-03-06T10:35:21;19.67;;;9.33;;
71629;SDS011;59479;51.902;8.212;2024-03-06T10:37:47;19.48;;;7.18;;
71629;SDS011;59479;51.902;8.212;2024-03-06T10:40:14;15.50;;;8.05;;
71629;SDS011;59479;51.902;8.212;2024-03-06T10:42:40;21.47;;;9.50;;
71629;SDS011;59479;51.902;8.212;2024-03-06T10:45:08;19.63;;;8.30;;
71629;SDS011;59479;51.902;8.212;2024-03-06T10:47:38;18.60;;;8.52;;
71629;SDS011;59479;51.902;8.212;2024-03-06T10:50:05;22.20;;;9.65;;
71629;SDS011;59479;51.902;8.212;2024-03-06T10:52:35;17.05;;;6.88;;
71629;SDS011;59479;51.902;8.212;2024-03-06T10:55:03;18.40;;;8.23;;
71629;SDS011;59479;51.902;8.212;2024-03-06T10:57:29;16.80;;;7.32;;
71629;SDS011;59479;51.902;8.212;2024-03-06T10:59:56;19.23;;;6.93;;
71629;SDS011;59479;51.902;8.212;2024-03-06T11:02:24;14.90;;;7.15;;
71629;SDS011;59479;51.902;8.212;2024-03-06T11:04:50;14.83;;;6.37;;
71629;SDS011;59479;51.902;8.212;2024-03-06T11:07:16;14.38;;;6.95;;
71629;SDS011;59479;51.902;8.212;2024-03-06T11:09:42;17.47;;;6.87;;
71629;SDS011;59479;51.902;8.212;2024-03-06T11:12:07;15.57;;;7.20;;
71629;SDS011;59479;51.902;8.212;2024-03-06T11:14:36;15.00;;;6.88;;
71629;SDS011;59479;51.902;8.212;2024-03-06T11:19:29;12.70;;;6.73;;
71629;SDS011;59479;51.902;8.212;2024-03-06T11:21:56;13.57;;;6.10;;
71629;SDS011;59479;51.902;8.212;2024-03-06T11:24:22;12.80;;;6.72;;
71629;SDS011;59479;51.902;8.212;2024-03-06T11:26:55;16.90;;;7.20;;
71629;SDS011;59479;51.902;8.212;2024-03-06T11:29:27;13.67;;;5.57;;
71629;SDS011;59479;51.902;8.212;2024-03-06T11:34:26;16.40;;;7.20;;
71629;SDS011;59479;51.902;8.212;2024-03-06T11:36:56;12.82;;;6.13;;
71629;SDS011;59479;51.902;8.212;2024-03-06T11:39:22;15.52;;;7.55;;
71629;SDS011;59479;51.902;8.212;2024-03-06T11:41:48;18.23;;;7.93;;
71629;SDS011;59479;51.902;8.212;2024-03-06T11:44:18;16.00;;;6.53;;
71629;SDS011;59479;51.902;8.212;2024-03-06T11:49:20;22.90;;;7.65;;
71629;SDS011;59479;51.902;8.212;2024-03-06T11:51:49;16.27;;;7.38;;
71629;SDS011;59479;51.902;8.212;2024-03-06T11:54:15;17.55;;;7.47;;
71629;SDS011;59479;51.902;8.212;2024-03-06T11:56:43;13.88;;;6.82;;
71629;SDS011;59479;51.902;8.212;2024-03-06T11:59:10;22.30;;;7.53;;
71629;SDS011;59479;51.902;8.212;2024-03-06T12:01:36;17.13;;;7.55;;
71629;SDS011;59479;51.902;8.212;2024-03-06T12:04:02;14.93;;;8.03;;
71629;SDS011;59479;51.902;8.212;2024-03-06T12:06:30;15.07;;;6.95;;
71629;SDS011;59479;51.902;8.212;2024-03-06T12:08:57;18.27;;;8.35;;
71629;SDS011;59479;51.902;8.212;2024-03-06T12:11:23;16.40;;;7.18;;
71629;SDS011;59479;51.902;8.212;2024-03-06T12:13:50;16.00;;;7.93;;
71629;SDS011;59479;51.902;8.212;2024-03-06T12:16:16;13.40;;;7.20;;
71629;SDS011;59479;51.902;8.212;2024-03-06T12:18:42;17.17;;;7.60;;
71629;SDS011;59479;51.902;8.212;2024-03-06T12:21:07;16.63;;;7.77;;
71629;SDS011;59479;51.902;8.212;2024-03-06T12:23:33;15.87;;;6.63;;
71629;SDS011;59479;51.902;8.212;2024-03-06T12:26:05;14.03;;;6.83;;
71629;SDS011;59479;51.902;8.212;2024-03-06T12:28:36;16.13;;;6.90;;
71629;SDS011;59479;51.902;8.212;2024-03-06T12:31:04;14.75;;;6.88;;
71629;SDS011;59479;51.902;8.212;2024-03-06T12:33:30;14.60;;;7.03;;
71629;SDS011;59479;51.902;8.212;2024-03-06T12:36:03;15.55;;;7.25;;
71629;SDS011;59479;51.902;8.212;2024-03-06T12:38:30;16.67;;;6.60;;
71629;SDS011;59479;51.902;8.212;2024-03-06T12:40:56;14.18;;;6.72;;
71629;SDS011;59479;51.902;8.212;2024-03-06T12:43:21;15.60;;;7.93;;
71629;SDS011;59479;51.902;8.212;2024-03-06T12:45:47;18.80;;;7.30;;
71629;SDS011;59479;51.902;8.212;2024-03-06T12:48:12;18.00;;;7.30;;
71629;SDS011;59479;51.902;8.212;2024-03-06T12:50:37;16.83;;;8.65;;
71629;SDS011;59479;51.902;8.212;2024-03-06T12:53:03;17.97;;;8.17;;
71629;SDS011;59479;51.902;8.212;2024-03-06T12:55:30;15.23;;;8.05;;
71629;SDS011;59479;51.902;8.212;2024-03-06T12:58:00;20.20;;;9.10;;
71629;SDS011;59479;51.902;8.212;2024-03-06T13:00:27;18.45;;;8.88;;
71629;SDS011;59479;51.902;8.212;2024-03-06T13:02:52;21.23;;;8.87;;
71629;SDS011;59479;51.902;8.212;2024-03-06T13:05:18;19.80;;;9.83;;
71629;SDS011;59479;51.902;8.212;2024-03-06T13:07:44;18.58;;;9.02;;
71629;SDS011;59479;51.902;8.212;2024-03-06T13:10:10;21.03;;;9.47;;
71629;SDS011;59479;51.902;8.212;2024-03-06T13:12:36;23.20;;;9.07;;
71629;SDS011;59479;51.902;8.212;2024-03-06T13:15:02;19.83;;;8.93;;
71629;SDS011;59479;51.902;8.212;2024-03-06T13:17:29;23.70;;;9.23;;
71629;SDS011;59479;51.902;8.212;2024-03-06T13:19:54;20.67;;;9.60;;
71629;SDS011;59479;51.902;8.212;2024-03-06T13:22:21;24.55;;;9.98;;
71629;SDS011;59479;51.902;8.212;2024-03-06T13:24:47;19.00;;;8.73;;
71629;SDS011;59479;51.902;8.212;2024-03-06T13:27:13;24.67;;;9.63;;
71629;SDS011;59479;51.902;8.212;2024-03-06T13:29:38;19.93;;;9.17;;
71629;SDS011;59479;51.902;8.212;2024-03-06T13:32:04;20.02;;;9.52;;
71629;SDS011;59479;51.902;8.212;2024-03-06T13:34:31;19.40;;;9.50;;
71629;SDS011;59479;51.902;8.212;2024-03-06T13:36:57;23.30;;;9.20;;
71629;SDS011;59479;51.902;8.212;2024-03-06T13:39:23;22.95;;;8.18;;
71629;SDS011;59479;51.902;8.212;2024-03-06T13:41:48;17.93;;;9.07;;
71629;SDS011;59479;51.902;8.212;2024-03-06T13:44:14;16.63;;;7.97;;
71629;SDS011;59479;51.902;8.212;2024-03-06T13:46:39;16.63;;;7.90;;
71629;SDS011;59479;51.902;8.212;2024-03-06T13:49:04;21.03;;;8.80;;
71629;SDS011;59479;51.902;8.212;2024-03-06T13:51:30;20.83;;;8.52;;
71629;SDS011;59479;51.902;8.212;2024-03-06T13:53:55;20.00;;;8.82;;
71629;SDS011;59479;51.902;8.212;2024-03-06T13:56:21;18.33;;;8.33;;
71629;SDS011;59479;51.902;8.212;2024-03-06T13:58:46;19.23;;;8.97;;
71629;SDS011;59479;51.902;8.212;2024-03-06T14:01:11;22.07;;;9.10;;
71629;SDS011;59479;51.902;8.212;2024-03-06T14:03:37;18.60;;;8.27;;
71629;SDS011;59479;51.902;8.212;2024-03-06T14:06:04;19.67;;;8.63;;
71629;SDS011;59479;51.902;8.212;2024-03-06T14:08:32;19.80;;;8.67;;
71629;SDS011;59479;51.902;8.212;2024-03-06T14:10:57;18.45;;;8.63;;
71629;SDS011;59479;51.902;8.212;2024-03-06T14:13:23;19.97;;;9.37;;
71629;SDS011;59479;51.902;8.212;2024-03-06T14:15:48;20.97;;;8.80;;
71629;SDS011;59479;51.902;8.212;2024-03-06T14:18:14;16.85;;;8.80;;
71629;SDS011;59479;51.902;8.212;2024-03-06T14:20:39;21.27;;;9.47;;
71629;SDS011;59479;51.902;8.212;2024-03-06T14:23:05;17.67;;;8.43;;
71629;SDS011;59479;51.902;8.212;2024-03-06T14:25:30;21.77;;;9.67;;
71629;SDS011;59479;51.902;8.212;2024-03-06T14:28:00;19.20;;;9.43;;
71629;SDS011;59479;51.902;8.212;2024-03-06T14:30:26;22.85;;;9.82;;